• Join FlightAware (Why Join?)
  • Login
  • US Flag 
04:45PM EDT


 

Airport Tracker/Info


-or-


 

Live Flight TrackerFlight Track Log ✈ UAL495 ✈ 17-Apr-2013 ✈ KLAX - KDEN

Flight Track Log - Related Links

Times and Time Zones

All times are in EDT time to prevent confusion due to time zone crossing. See the UAL495 flight status page for this flight to view local times or setup timezone preferences in your user account.

Time Position Orientation Groundspeed Altitude Reporting Facility
EDT Latitude Longitude Course Direction KTS MPH feet Rate Location/Type
08:49AM 33.9336 -118.4378 90° East 194 223 1,600  Level Los Angeles Center
08:50AM 33.8825 -118.4978 224° Southwest 257 296 4,700 3,060 Climbing Los Angeles Center
08:51AM 33.7631 -118.6175 132° Southeast  Level FlightAware Approximate
08:51AM 33.8117 -118.5083 187° South 287 330 7,800  Level Los Angeles Center
08:52AM 33.6814 -118.5049 101° East  Level FlightAware Approximate
08:52AM 33.7292 -118.5178 185° South 301 346 11,100  Level Los Angeles Center
08:53AM 33.6446 -118.3615 116° Southeast  Level FlightAware Approximate
08:53AM 33.6508 -118.4264 136° Southeast 367 422 13,200  Level Los Angeles Center
08:54AM 33.6333 -118.2136 90° East  Level FlightAware Approximate
08:54AM 33.6750 -118.3131 76° East 375 432 15,700  Level Los Angeles Center
08:55AM 33.7253 -118.2047 61° Northeast 383 441 17,600 1,980 Climbing Los Angeles Center
08:56AM 33.7750 -118.0847 63° Northeast 401 461 19,800 2,100 Climbing Los Angeles Center
08:57AM 33.8508 -117.9900 46° Northeast 391 450 21,900 1,800 Climbing Los Angeles Center
08:58AM 33.9406 -117.9147 35° Northeast 396 456 23,500 1,680 Climbing Los Angeles Center
08:59AM 34.0333 -117.8272 38° Northeast 419 482 25,300 1,620 Climbing Los Angeles Center
09:00AM 34.1247 -117.7294 42° Northeast 441 507 26,800 1,440 Climbing Los Angeles Center
09:01AM 34.2106 -117.6122 48° Northeast 464 534 28,300 1,260 Climbing Los Angeles Center
09:02AM 34.2992 -117.4919 48° Northeast 475 547 29,400 1,080 Climbing Los Angeles Center
09:03AM 34.3947 -117.3619 48° Northeast 490 564 30,500 1,140 Climbing Los Angeles Center
09:04AM 34.4881 -117.2322 49° Northeast 507 583 31,800 1,500 Climbing Los Angeles Center
09:05AM 34.5822 -117.1039 48° Northeast 512 589 33,600 1,320 Climbing Los Angeles Center
09:06AM 34.6736 -116.9775 49° Northeast 505 581 34,500 960 Climbing Los Angeles Center
09:07AM 34.7669 -116.8489 49° Northeast 509 586 35,600 1,020 Climbing Los Angeles Center
09:08AM 34.8600 -116.7197 49° Northeast 509 586 36,600 660 Climbing Los Angeles Center
09:09AM 34.9539 -116.5881 49° Northeast 514 592 37,000 180 Climbing Los Angeles Center
09:10AM 35.0733 -116.4358 46° Northeast 521 600 37,000  Level Los Angeles Center
09:11AM 35.1719 -116.3122 46° Northeast 515 593 37,000  Level Los Angeles Center
09:12AM 35.2714 -116.1892 45° Northeast 509 586 37,000  Level Los Angeles Center
09:13AM 35.3672 -116.0678 46° Northeast 500 575 37,000  Level Los Angeles Center
09:14AM 35.4619 -115.9450 47° Northeast 497 572 37,000  Level Los Angeles Center
09:15AM 35.5533 -115.8344 45° Northeast 503 579 37,000  Level Los Angeles Center
09:16AM 35.6497 -115.7100 46° Northeast 504 580 37,000  Level Los Angeles Center
09:17AM 35.7656 -115.5631 46° Northeast 501 577 37,000  Level Los Angeles Center
09:18AM 35.8606 -115.4431 46° Northeast 493 567 37,000  Level Los Angeles Center
09:19AM 35.9533 -115.3200 47° Northeast 492 566 37,000  Level Los Angeles Center
09:20AM 36.0469 -115.2006 46° Northeast 489 563 37,000  Level Los Angeles Center
09:21AM 36.1131 -115.0503 61° Northeast 504 580 37,000  Level Los Angeles Center
09:22AM 36.1594 -114.8947 70° East 511 588 37,000  Level Los Angeles Center
09:23AM 36.2119 -114.7244 69° East 507 583 37,000  Level Los Angeles Center
09:24AM 36.2619 -114.5636 69° East 503 579 37,000  Level Los Angeles Center
09:25AM 36.3100 -114.4028 70° East 500 575 37,000  Level Los Angeles Center
09:26AM 36.3581 -114.2436 69° East 495 570 37,000  Level Los Angeles Center
09:27AM 36.4075 -114.0819 69° East 500 575 37,000  Level Los Angeles Center
09:28AM 36.4650 -113.8853 70° East 505 581 37,000  Level Los Angeles Center
09:29AM 36.5117 -113.7303 69° East 509 586 37,000  Level Los Angeles Center
09:30AM 36.5606 -113.5644 70° East 514 592 37,000  Level Los Angeles Center
09:31AM 36.6092 -113.3964 70° East 517 595 37,000  Level Los Angeles Center
09:32AM 36.6569 -113.2283 70° East 518 596 37,000  Level Los Angeles Center
09:33AM 36.7058 -113.0608 70° East 517 595 37,000  Level Los Angeles Center
09:34AM 36.7647 -112.8594 70° East 519 597 37,000  Level Los Angeles Center
09:35AM 36.8131 -112.6922 70° East 518 596 37,000  Level Los Angeles Center
09:36AM 36.8608 -112.5244 70° East 517 595 37,000  Level Los Angeles Center
09:37AM 36.9081 -112.3575 70° East 515 593 37,000  Level Los Angeles Center
09:38AM 36.9547 -112.1908 71° East 514 592 37,000  Level Los Angeles Center
09:39AM 37.0014 -112.0244 71° East 512 589 37,000  Level Los Angeles Center
09:40AM 37.0217 -111.9575 69° East 515 593 37,000  Level Denver Center
09:41AM 37.0678 -111.7886 71° East 516 594 37,000  Level Denver Center
09:42AM 37.1153 -111.6189 71° East 518 596 37,000  Level Denver Center
09:43AM 37.1622 -111.4539 70° East 509 586 37,000  Level Denver Center
09:44AM 37.2197 -111.2881 66° East 518 596 37,000  Level Denver Center
09:45AM 37.2786 -111.1225 66° East 522 601 37,000  Level Denver Center
09:46AM 37.3372 -110.9578 66° East 521 600 37,000  Level Denver Center
09:47AM 37.4072 -110.7583 66° East 523 602 37,000  Level Denver Center
09:48AM 37.4650 -110.5925 66° East 522 601 37,000  Level Denver Center
09:49AM 37.5264 -110.4144 66° East 523 602 37,000  Level Denver Center
09:50AM 37.5900 -110.2275 67° East 520 598 37,000  Level Denver Center
09:51AM 37.6453 -110.0669 66° East 520 598 37,000  Level Denver Center
09:52AM 37.7006 -109.9056 67° East 520 598 37,000  Level Denver Center
09:53AM 37.7636 -109.7172 67° East 521 600 37,000  Level Denver Center
09:54AM 37.8169 -109.5561 67° East 519 597 37,000  Level Denver Center
09:55AM 37.8708 -109.3931 67° East 523 602 37,000  Level Denver Center
09:56AM 37.9339 -109.2058 67° East 520 598 37,000  Level Denver Center
09:57AM 37.9864 -109.0444 68° East 519 597 37,000  Level Denver Center
09:58AM 38.0400 -108.8828 67° East 517 595 37,000  Level Denver Center
09:59AM 38.0861 -108.7383 68° East 522 601 37,000  Level Denver Center
10:00AM 38.1558 -108.5253 67° East 514 592 37,000  Level Denver Center
10:01AM 38.2072 -108.3653 68° East 512 589 37,000  Level Denver Center
10:02AM 38.2681 -108.1792 67° East 512 589 37,000  Level Denver Center
10:03AM 38.3189 -108.0183 68° East 512 589 37,000  Level Denver Center
10:04AM 38.3714 -107.8550 68° East 519 597 37,000 -300 Level Denver Center
10:05AM 38.4303 -107.6656 68° East 518 596 36,400 -840 Descending Denver Center
10:06AM 38.4917 -107.5039 64° Northeast 524 603 35,400 -1,020 Descending Denver Center
10:07AM 38.5733 -107.3242 60° Northeast 524 603 34,400 -1,140 Descending Denver Center
10:08AM 38.6356 -107.1847 60° Northeast 528 608 33,100 -1,320 Descending Denver Center
10:09AM 38.7106 -107.0156 60° Northeast 545 627 31,700 -1,140 Descending Denver Center
10:10AM 38.7847 -106.8467 61° Northeast 545 627 30,900 -840 Descending Denver Center
10:11AM 38.8722 -106.6467 61° Northeast 539 620 30,000 -660 Descending Denver Center
10:12AM 38.9417 -106.4978 59° Northeast 539 620 29,600 -540 Descending Denver Center
10:13AM 39.0269 -106.3147 59° Northeast 536 617 29,000 -300 Descending Denver Center
10:14AM 39.1003 -106.1500 60° Northeast 526 605 29,000 -480 Level Denver Center
10:15AM 39.1739 -105.9858 60° Northeast 524 603 28,100 -1,920 Descending Denver Center
10:16AM 39.2364 -105.8272 63° Northeast 496 571 25,200 -2,580 Descending Denver Center
10:18AM 39.2653 -105.6714 76° East 444 511 22,400 -2,220 Descending Denver Center
10:19AM 39.2925 -105.4997 78° East 419 482 19,900 -2,760 Descending Denver Center
10:20AM 39.3869 -105.3397 53° Northeast 423 487 16,300 -2,880 Descending Denver Center
10:21AM 39.4178 -105.2117 73° East 379 436 14,100 -1,620 Descending Denver Center
10:22AM 39.4314 -105.0842 82° East 354 407 13,000 -540 Descending Denver Center
10:23AM 39.4372 -104.9706 86° East 310 357 13,000 -180 Level Denver Center
10:24AM 39.4422 -104.8675 86° East 269 310 12,700 -540 Descending Denver Center
10:25AM 39.4722 -104.7853 65° Northeast 268 308 11,900 -840 Descending Denver Center
10:26AM 39.5286 -104.7228 41° Northeast 268 308 11,000 -900 Descending Denver Center
10:27AM 39.5811 -104.6631 41° Northeast 235 270 10,100 -1,020 Descending Denver Center
10:28AM 39.6453 -104.6633 360° North 226 260 9,000 -1,080 Descending Denver Center
10:29AM 39.7058 -104.6619 North 219 252 8,000 -1,020 Descending Denver Center